»·PEaware :: N81041 F70-KPSP

N81041 :: F70-KPSP

FLIGHT INFORMATION

Flight Status: Arrived
Operator: Privately registered:
United States
More flights under this callsign
Pilot: John C. (12173)
Aircraft: GRUMMAN AERO AA5 CHEETAH TIGER
(AA5)
More flights by this aircraft type
Origin: F70 French Valley
United States
Destination: KPSP Palm Springs Intl
United States
More flights between these airports :: More routes between these airports
Route: +RWY36 DP HDF HEMET V64 TRM
File this flight plan on PilotEdge
Remarks:
Altitude:
(Current/Filed)
9,000ft
Speed:
(Current/Filed)
130kts
Departed: 11-Oct-19 08:48 PM
Arrived: 11-Oct-19 09:37 PM
Distance/Time
Traveled:
34nm/0:49
Distance/Time
To Go:
Arrived

Flight Plot

Page will automatically refresh every two minutes.

Flight plan parsing failed; only flown route is shown


Map Options




Map Legend


Flown Route
Filed Route
Departure Airport
Arrival Airport
Navaid (VOR, NDB)
Fix

Horizontal Profiles

Position Reports

Time Latitude Longitude Heading Altitude Ground
Speed
11-Oct-19 20:20 33.574188 -117.128472 359 1339ft 0kts
11-Oct-19 20:21 33.574188 -117.128472 359 1339ft 0kts
11-Oct-19 20:22 33.574188 -117.128472 359 1339ft 0kts
11-Oct-19 20:23 33.574188 -117.128472 359 1339ft 0kts
11-Oct-19 20:24 33.574188 -117.128472 359 1339ft 0kts
11-Oct-19 20:25 33.574188 -117.128472 359 1339ft 0kts
11-Oct-19 20:26 33.574188 -117.128472 359 1339ft 0kts
11-Oct-19 20:27 33.574188 -117.128472 359 1339ft 0kts
11-Oct-19 20:28 33.574188 -117.128472 359 1339ft 0kts
11-Oct-19 20:29 33.566282 -117.130553 12 1331ft 0kts
11-Oct-19 20:30 33.566282 -117.130553 12 1331ft 0kts
11-Oct-19 20:31 33.566282 -117.130553 12 1331ft 0kts
11-Oct-19 20:32 33.566282 -117.130553 12 1331ft 0kts
11-Oct-19 20:33 33.566282 -117.130553 12 1331ft 0kts
11-Oct-19 20:34 33.566282 -117.130553 12 1331ft 0kts
11-Oct-19 20:35 33.566282 -117.130553 12 1331ft 0kts
11-Oct-19 20:36 33.566282 -117.130553 12 1331ft 0kts
11-Oct-19 20:37 33.566282 -117.130553 12 1331ft 0kts
11-Oct-19 20:38 33.566282 -117.130553 12 1331ft 0kts
11-Oct-19 20:39 33.566282 -117.130553 12 1331ft 0kts
11-Oct-19 20:40 33.566282 -117.130553 12 1331ft 0kts
11-Oct-19 20:41 33.566282 -117.130553 12 1331ft 0kts
11-Oct-19 20:42 33.566282 -117.130553 12 1331ft 0kts
11-Oct-19 20:43 33.566282 -117.130553 12 1331ft 0kts
11-Oct-19 20:44 33.566282 -117.130553 12 1331ft 0kts
11-Oct-19 20:45 33.566282 -117.130553 12 1331ft 0kts
11-Oct-19 20:46 33.566282 -117.130553 12 1331ft 0kts
11-Oct-19 20:47 33.573033 -117.128874 10 1433ft 91kts
11-Oct-19 20:48 33.597647 -117.126887 348 2718ft 101kts
11-Oct-19 20:49 33.625646 -117.130908 354 3974ft 103kts
11-Oct-19 20:50 33.654743 -117.132235 341 5124ft 108kts
11-Oct-19 20:51 33.681577 -117.145318 341 6198ft 108kts
11-Oct-19 20:52 33.710069 -117.156225 341 7209ft 110kts
11-Oct-19 20:53 33.736877 -117.172874 326 8150ft 112kts
11-Oct-19 20:54 33.767019 -117.180753 333 9011ft 116kts
11-Oct-19 20:55 33.786828 -117.170478 120 9681ft 125kts
11-Oct-19 20:56 33.771801 -117.137235 117 10565ft 122kts
11-Oct-19 20:57 33.756841 -117.101815 112 11079ft 128kts
11-Oct-19 20:58 33.743882 -117.061319 112 11265ft 129kts
11-Oct-19 20:59 33.730620 -117.018155 108 11004ft 142kts
11-Oct-19 21:00 33.718590 -116.977648 116 10890ft 133kts
11-Oct-19 21:01 33.702122 -116.938464 107 10898ft 127kts
11-Oct-19 21:03 33.692547 -116.897332 107 10946ft 128kts
11-Oct-19 21:04 33.683233 -116.855875 106 10998ft 129kts
11-Oct-19 21:05 33.675309 -116.813827 104 11023ft 130kts
11-Oct-19 21:06 33.668462 -116.771319 101 11060ft 130kts
11-Oct-19 21:07 33.663638 -116.728377 94 11097ft 130kts
11-Oct-19 21:08 33.657708 -116.685758 100 11123ft 130kts
11-Oct-19 21:09 33.655222 -116.642432 93 10977ft 129kts
11-Oct-19 21:10 33.656275 -116.599508 87 10571ft 131kts
11-Oct-19 21:11 33.652882 -116.556766 97 10218ft 128kts
11-Oct-19 21:12 33.650091 -116.514119 92 9849ft 128kts
11-Oct-19 21:13 33.649409 -116.471939 94 9467ft 127kts
11-Oct-19 21:14 33.646508 -116.430859 98 9016ft 126kts
11-Oct-19 21:15 33.642989 -116.389120 95 8572ft 125kts
11-Oct-19 21:16 33.641330 -116.347547 91 8148ft 124kts
11-Oct-19 21:17 33.638182 -116.306495 93 7568ft 122kts
11-Oct-19 21:18 33.634739 -116.265795 101 6846ft 122kts
11-Oct-19 21:19 33.632735 -116.225701 90 6185ft 121kts
11-Oct-19 21:20 33.629657 -116.185937 96 5520ft 120kts
11-Oct-19 21:21 33.627484 -116.146441 99 4863ft 119kts
11-Oct-19 21:22 33.621672 -116.107892 118 4302ft 115kts
11-Oct-19 21:23 33.608231 -116.126397 299 4036ft 117kts
11-Oct-19 21:23 33.622840 -116.153287 304 3995ft 115kts
11-Oct-19 21:24 33.641582 -116.184585 308 3757ft 113kts
11-Oct-19 21:26 33.662007 -116.221634 305 3246ft 115kts
11-Oct-19 21:26 33.677174 -116.246511 305 2917ft 113kts
11-Oct-19 21:27 33.694862 -116.277443 305 2996ft 113kts
11-Oct-19 21:29 33.715212 -116.314206 299 3073ft 114kts
11-Oct-19 21:29 33.730332 -116.340198 307 3073ft 115kts
11-Oct-19 21:30 33.748046 -116.372091 300 3092ft 116kts
11-Oct-19 21:31 33.764352 -116.404525 300 3118ft 116kts
11-Oct-19 21:32 33.781996 -116.436483 307 2572ft 116kts
11-Oct-19 21:33 33.797725 -116.465372 295 1918ft 90kts
11-Oct-19 21:34 33.809792 -116.490367 328 911ft 82kts
11-Oct-19 21:35 33.824964 -116.503550 322 412ft 51kts
11-Oct-19 21:36 33.833282 -116.511421 245 438ft 15kts
11-Oct-19 21:37 33.832528 -116.511967 181 437ft 12kts
11-Oct-19 21:38 33.827547 -116.508449 155 424ft 0kts
11-Oct-19 21:39 33.827547 -116.508449 155 424ft 0kts
11-Oct-19 21:40 33.827547 -116.508449 155 424ft 0kts

Navigation Log

Ident Type
Flight plan parsing failed, navigation log unavailable